Time;durP1;ratioP1;P1;durP2;ratioP2;P2;SDS_P1;SDS_P2;PMS_P1;PMS_P2;Temp;Humidity;BMP_temperature;BMP_pressure;BME280_temperature;BME280_humidity;BME280_pressure;Samples;Min_cycle;Max_cycle;Signal;HPM_P1;HPM_P2
2023/05/05 00:02:25;;;;;;;;;;;;;;;;;;6186729;23;19927;-78
2023/05/05 00:04:52;;;;;;;;;;;;;;;;;;6187271;23;20176;-78
2023/05/05 00:07:19;;;;;;;;;;;;;;;;;;6212816;23;20225;-78
2023/05/05 00:09:47;;;;;;;;;;;;;;;;;;6187165;23;19927;-78
2023/05/05 00:12:16;;;;;;;;;;;;;;;;;;6185297;23;19920;-78
2023/05/05 00:14:45;;;;;;;;;;;;;;;;;;6187220;23;20271;-78
2023/05/05 00:17:12;;;;;;;;;;;;;;;;;;6186597;23;19920;-78
2023/05/05 00:19:44;;;;;;;;;;;;;;;;;;6187724;23;19920;-79
2023/05/05 00:22:11;;;;;;;;;;;;;;;;;;6188313;23;19919;-79
2023/05/05 00:24:38;;;;;;;;;;;;;;;;;;6186747;23;19920;-78
2023/05/05 00:27:07;;;;;;;;;;;;;;;;;;6185780;23;19919;-78
2023/05/05 00:29:36;;;;;;;;;;;;;;;;;;6186183;23;19920;-78
2023/05/05 00:32:03;;;;;;;;;;;;;;;;;;6186896;23;19920;-79
2023/05/05 00:34:33;;;;;;;;;;;;;;;;;;6187346;23;19924;-79
2023/05/05 00:37:03;;;;;;;;;;;;;;;;;;6186836;23;19920;-79
2023/05/05 00:39:32;;;;;;;;;;;;;;;;;;6183395;23;20372;-78
2023/05/05 00:42:01;;;;;;;;;;;;;;;;;;6195861;23;19927;-78
2023/05/05 00:44:34;;;;;;;;;;;;;;;;;;6187038;23;20359;-78
2023/05/05 00:47:04;;;;;;;;;;;;;;;;;;6186525;23;19920;-78
2023/05/05 00:49:31;;;;;;;;;;;;;;;;;;6186765;23;20544;-78
2023/05/05 00:52:00;;;;;;;;;;;;;;;;;;6185887;23;20260;-78
2023/05/05 00:54:31;;;;;;;;;;;;;;;;;;6187027;23;19935;-79
2023/05/05 00:57:00;;;;;;;;;;;;;;;;;;6186124;23;19943;-79
2023/05/05 00:59:28;;;;;;;;;;;;;;;;;;6186564;23;19919;-79
2023/05/05 01:01:55;;;;;;;;;;;;;;;;;;6186493;23;20328;-79
2023/05/05 01:04:22;;;;;;;;;;;;;;;;;;6186979;23;20384;-79
2023/05/05 01:06:52;;;;;;;;;;;;;;;;;;6186280;23;19927;-78
2023/05/05 01:09:23;;;;;;;;;;;;;;;;;;6186064;23;19924;-78
2023/05/05 01:11:56;;;;;;;;;;;;;;;;;;6186335;23;20345;-78
2023/05/05 01:14:27;;;;;;;;;;;;;;;;;;6188799;23;20356;-78
2023/05/05 01:16:57;;;;;;;;;;;;;;;;;;6188069;23;19920;-78
2023/05/05 01:19:29;;;;;;;;;;;;;;;;;;6215342;23;19923;-78
2023/05/05 01:21:57;;;;;;;;;;;;;;;;;;6186904;23;20053;-79
2023/05/05 01:24:44;;;;;;;;;;;;;;;;;;6188507;23;19920;-78
2023/05/05 01:27:30;;;;;;;;;;;;;;;;;;6161600;23;19920;-78
2023/05/05 01:30:03;;;;;;;;;;;;;;;;;;6198902;23;19920;-78
2023/05/05 01:32:32;;;;;;;;;;;;;;;;;;6188120;23;19927;-78
2023/05/05 01:35:00;;;;;;;;;;;;;;;;;;6189253;23;19920;-78
2023/05/05 01:37:32;;;;;;;;;;;;;;;;;;6191733;23;19924;-78
2023/05/05 01:39:59;;;;;;;;;;;;;;;;;;6190715;23;19920;-78
2023/05/05 01:42:26;;;;;;;;;;;;;;;;;;6189172;23;19924;-78
2023/05/05 01:44:53;;;;;;;;;;;;;;;;;;6188485;23;19924;-79
2023/05/05 01:47:24;;;;;;;;;;;;;;;;;;6188321;23;20333;-79
2023/05/05 01:49:56;;;;;;;;;;;;;;;;;;6188535;23;19920;-79
2023/05/05 01:52:26;;;;;;;;;;;;;;;;;;6187955;23;19924;-79
2023/05/05 01:54:55;;;;;;;;;;;;;;;;;;6188460;23;19920;-79
2023/05/05 01:57:22;;;;;;;;;;;;;;;;;;6187822;23;19927;-78
2023/05/05 01:59:49;;;;;;;;;;;;;;;;;;6188293;23;20344;-78
2023/05/05 02:02:16;;;;;;;;;;;;;;;;;;6136944;23;19920;-78
2023/05/05 02:04:44;;;;;;;;;;;;;;;;;;6187907;23;20371;-78
2023/05/05 02:07:14;;;;;;;;;;;;;;;;;;6188297;23;19927;-78
2023/05/05 02:09:44;;;;;;;;;;;;;;;;;;6187927;23;19920;-78
2023/05/05 02:12:11;;;;;;;;;;;;;;;;;;6187579;23;20313;-78
2023/05/05 02:14:38;;;;;;;;;;;;;;;;;;6187803;23;20352;-78
2023/05/05 02:17:08;;;;;;;;;;;;;;;;;;6188847;23;19924;-78
2023/05/05 02:19:38;;;;;;;;;;;;;;;;;;6187994;23;19943;-78
2023/05/05 02:22:08;;;;;;;;;;;;;;;;;;6198085;23;19920;-78
2023/05/05 02:24:38;;;;;;;;;;;;;;;;;;6185955;23;19923;-78
2023/05/05 02:27:08;;;;;;;;;;;;;;;;;;6188556;23;19920;-78
2023/05/05 02:29:39;;;;;;;;;;;;;;;;;;6187341;23;19924;-78
2023/05/05 02:32:15;;;;;;;;;;;;;;;;;;6187328;23;20505;-78
2023/05/05 02:34:42;;;;;;;;;;;;;;;;;;6197668;23;19924;-78
2023/05/05 02:37:12;;;;;;;;;;;;;;;;;;6187576;23;19935;-78
2023/05/05 02:39:45;;;;;;;;;;;;;;;;;;6187608;23;19920;-78
2023/05/05 02:42:16;;;;;;;;;;;;;;;;;;6197724;23;19920;-79
2023/05/05 02:44:43;;;;;;;;;;;;;;;;;;6187851;23;19927;-79
2023/05/05 02:47:11;;;;;;;;;;;;;;;;;;6187192;23;19927;-79
2023/05/05 02:49:38;;;;;;;;;;;;;;;;;;6187823;23;20256;-79
2023/05/05 02:52:05;;;;;;;;;;;;;;;;;;6187251;23;19943;-79
2023/05/05 02:54:36;;;;;;;;;;;;;;;;;;6187598;23;19919;-79
2023/05/05 03:03:14;;;;;;;;;;;;;;;;;;6125230;23;19920;-80
2023/05/05 03:13:12;;;;;;;;;;;;;;;;;;6214749;23;19920;-80
2023/05/05 03:21:59;;;;;;;;;;;;;;;;;;6193682;23;19924;-80
2023/05/05 03:24:49;;;;;;;;;;;;;;;;;;6179758;23;19915;-80
2023/05/05 03:28:10;;;;;;;;;;;;;;;;;;;;;
2023/05/05 03:31:33;;;;;;;;;;;;;;;;;;;;;
2023/05/05 03:35:06;;;;;;;;;;;;;;;;;;;;;
2023/05/05 03:38:01;;;;;;;;;;;;;;;;;;6082220;23;19928;-80
2023/05/05 03:40:38;;;;;;;;;;;;;;;;;;6153877;23;19928;-81
2023/05/05 03:43:16;;;;;;;;;;;;;;;;;;6168265;23;19924;-81
2023/05/05 03:45:52;;;;;;;;;;;;;;;;;;6200661;23;19927;-81
2023/05/05 03:48:25;;;;;;;;;;;;;;;;;;6169501;23;19924;-80
2023/05/05 03:50:55;;;;;;;;;;;;;;;;;;6197545;23;19924;-80
2023/05/05 04:01:03;;;;;;;;;;;;;;;;;;6101740;23;20300;-80
2023/05/05 04:03:33;;;;;;;;;;;;;;;;;;6127314;23;19921;-80
2023/05/05 04:06:02;;;;;;;;;;;;;;;;;;6145586;23;20249;-80
2023/05/05 04:08:35;;;;;;;;;;;;;;;;;;6163053;23;19920;-80
2023/05/05 04:11:12;;;;;;;;;;;;;;;;;;6162621;23;20260;-80
2023/05/05 04:13:52;;;;;;;;;;;;;;;;;;6187124;23;19920;-80
2023/05/05 04:17:05;;;;;;;;;;;;;;;;;;6125826;23;19959;-81
2023/05/05 04:20:09;;;;;;;;;;;;;;;;;;;;;
2023/05/05 04:27:09;;;;;;;;;;;;;;;;;;6191296;23;19927;-81
2023/05/05 04:30:11;;;;;;;;;;;;;;;;;;6071295;23;19927;-81
2023/05/05 04:33:06;;;;;;;;;;;;;;;;;;6121143;23;20354;-81
2023/05/05 04:35:36;;;;;;;;;;;;;;;;;;6190323;23;19927;-81
2023/05/05 04:38:04;;;;;;;;;;;;;;;;;;6162616;23;19924;-81
2023/05/05 04:40:31;;;;;;;;;;;;;;;;;;6138356;23;19926;-81
2023/05/05 04:43:05;;;;;;;;;;;;;;;;;;6200490;23;19920;-81
2023/05/05 04:45:33;;;;;;;;;;;;;;;;;;6189392;23;19931;-81
2023/05/05 04:48:00;;;;;;;;;;;;;;;;;;6191336;23;19920;-81
2023/05/05 04:50:31;;;;;;;;;;;;;;;;;;6165937;23;19921;-81
2023/05/05 04:52:59;;;;;;;;;;;;;;;;;;6141341;23;19920;-81
2023/05/05 04:55:32;;;;;;;;;;;;;;;;;;6166646;23;19927;-81
2023/05/05 04:57:59;;;;;;;;;;;;;;;;;;6190595;23;19926;-81
2023/05/05 05:00:26;;;;;;;;;;;;;;;;;;6191747;23;19925;-81
2023/05/05 05:02:53;;;;;;;;;;;;;;;;;;6192141;23;19931;-81
2023/05/05 05:05:21;;;;;;;;;;;;;;;;;;6170495;23;20246;-81
2023/05/05 05:07:49;;;;;;;;;;;;;;;;;;6172538;23;19919;-81
2023/05/05 05:10:25;;;;;;;;;;;;;;;;;;6206944;23;20260;-81
2023/05/05 05:13:30;;;;;;;;;;;;;;;;;;;;;
2023/05/05 05:16:16;;;;;;;;;;;;;;;;;;6047908;23;19928;-82
2023/05/05 05:22:04;;;;;;;;;;;;;;;;;;6178531;23;19924;-81
2023/05/05 05:25:06;;;;;;;;;;;;;;;;;;6186327;23;19920;-81
2023/05/05 05:27:47;;;;;;;;;;;;;;;;;;6203105;23;19920;-81
2023/05/05 05:30:34;;;;;;;;;;;;;;;;;;6205613;23;19930;-81
2023/05/05 05:33:18;;;;;;;;;;;;;;;;;;6206040;23;19924;-81
2023/05/05 05:36:00;;;;;;;;;;;;;;;;;;6195023;23;20250;-81
2023/05/05 05:38:52;;;;;;;;;;;;;;;;;;6174829;23;19920;-81
2023/05/05 05:41:21;;;;;;;;;;;;;;;;;;6195202;23;19943;-80
2023/05/05 05:43:48;;;;;;;;;;;;;;;;;;6169830;23;19920;-80
2023/05/05 13:26:14;;;;;;;;;;;;;;;;;;6224212;22;19920;-80
2023/05/05 13:28:50;;;;;;;;;;;;;;;;;;6225453;23;19920;-80
2023/05/05 13:31:27;;;;;;;;;;;;;;;;;;6197557;23;19934;-81
2023/05/05 13:34:04;;;;;;;;;;;;;;;;;;6197819;23;20367;-81
2023/05/05 13:54:07;;;;;;;;;;;;;;;;;;6128956;23;20333;-85
2023/05/05 13:56:34;;;;;;;;;;;;;;;;;;6105023;23;19920;-85
2023/05/05 13:59:01;;;;;;;;;;;;;;;;;;6155199;23;19932;-86
2023/05/05 14:01:29;;;;;;;;;;;;;;;;;;6129458;23;19947;-86
2023/05/05 16:45:43;;;;;;;;;;;;;;;;;;;;;
2023/05/05 16:48:13;;;;;;;;;;;;;;;;;;6218473;22;20961;-95
2023/05/05 16:50:43;;;;;;;;;;;;;;;;;;6217394;23;19955;-96
2023/05/05 16:53:15;;;;;;;;;;;;;;;;;;6217805;23;19953;-94
2023/05/05 16:55:51;;;;;;;;;;;;;;;;;;6218693;23;19903;-94
2023/05/05 16:58:29;;;;;;;;;;;;;;;;;;6217978;23;19948;-94
2023/05/05 17:01:06;;;;;;;;;;;;;;;;;;6217896;22;19956;-94
2023/05/05 17:03:38;;;;;;;;;;;;;;;;;;6216997;22;19963;-93
2023/05/05 17:06:08;;;;;;;;;;;;;;;;;;6191891;23;19908;-94
2023/05/05 17:08:42;;;;;;;;;;;;;;;;;;6191172;23;19904;-93
2023/05/05 17:11:09;;;;;;;;;;;;;;;;;;6191197;23;19908;-93
2023/05/05 17:13:40;;;;;;;;;;;;;;;;;;6218586;23;19944;-94
2023/05/05 17:16:17;;;;;;;;;;;;;;;;;;6193685;23;19956;-92
2023/05/05 17:21:34;;;;;;;;;;;;;;;;;;6216217;23;19951;-95
2023/05/05 17:24:08;;;;;;;;;;;;;;;;;;6216266;23;19908;-94
2023/05/05 17:26:46;;;;;;;;;;;;;;;;;;6217984;22;19904;-94
2023/05/05 17:32:26;;;;;;;;;;;;;;;;;;6172986;23;20231;-82
2023/05/05 17:34:56;;;;;;;;;;;;;;;;;;6142246;23;19921;-82
2023/05/05 17:37:26;;;;;;;;;;;;;;;;;;6175116;23;19921;-83
2023/05/05 17:39:56;;;;;;;;;;;;;;;;;;6141385;23;19925;-82
2023/05/05 17:42:25;;;;;;;;;;;;;;;;;;6139890;23;19929;-81
2023/05/05 17:44:53;;;;;;;;;;;;;;;;;;6140607;23;19921;-82
2023/05/05 17:47:23;;;;;;;;;;;;;;;;;;6167483;23;19927;-82
2023/05/05 17:49:52;;;;;;;;;;;;;;;;;;6167859;23;19921;-81
2023/05/05 17:52:21;;;;;;;;;;;;;;;;;;6151774;23;20252;-82
2023/05/05 17:54:51;;;;;;;;;;;;;;;;;;6139535;23;19921;-81
2023/05/05 17:57:22;;;;;;;;;;;;;;;;;;6126763;23;19925;-82
2023/05/05 17:59:52;;;;;;;;;;;;;;;;;;6142450;23;19943;-82
2023/05/05 18:02:19;;;;;;;;;;;;;;;;;;6142912;23;19921;-82
2023/05/05 18:04:46;;;;;;;;;;;;;;;;;;6166113;23;19944;-81
2023/05/05 18:07:17;;;;;;;;;;;;;;;;;;6169867;23;20226;-81
2023/05/05 18:09:45;;;;;;;;;;;;;;;;;;6150810;23;19927;-82
2023/05/05 18:12:14;;;;;;;;;;;;;;;;;;6117653;23;19920;-82
2023/05/05 18:14:43;;;;;;;;;;;;;;;;;;6164761;23;20091;-82
2023/05/05 18:17:15;;;;;;;;;;;;;;;;;;6145608;23;19921;-82
2023/05/05 18:20:10;;;;;;;;;;;;;;;;;;6159917;23;19927;-82
2023/05/05 18:22:45;;;;;;;;;;;;;;;;;;6148255;23;19920;-82
2023/05/05 18:25:12;;;;;;;;;;;;;;;;;;6173043;23;19925;-82
2023/05/05 18:27:39;;;;;;;;;;;;;;;;;;6114072;23;19927;-80
2023/05/05 18:30:07;;;;;;;;;;;;;;;;;;6137985;23;19921;-80
2023/05/05 18:32:36;;;;;;;;;;;;;;;;;;6139637;23;19920;-80
2023/05/05 18:35:03;;;;;;;;;;;;;;;;;;6137719;23;20265;-80
2023/05/05 18:37:33;;;;;;;;;;;;;;;;;;6162984;23;19926;-80
2023/05/05 18:40:04;;;;;;;;;;;;;;;;;;6163957;23;19921;-81
2023/05/05 18:42:31;;;;;;;;;;;;;;;;;;6138344;23;19931;-80
2023/05/05 18:45:00;;;;;;;;;;;;;;;;;;6139035;23;19920;-80
2023/05/05 18:47:33;;;;;;;;;;;;;;;;;;6144128;23;19921;-80
2023/05/05 18:50:06;;;;;;;;;;;;;;;;;;6137880;23;19920;-80
2023/05/05 18:52:33;;;;;;;;;;;;;;;;;;6131616;23;19925;-82
2023/05/05 18:55:29;;;;;;;;;;;;;;;;;;6167671;23;20341;-82
2023/05/05 18:57:56;;;;;;;;;;;;;;;;;;6134682;23;19924;-81
2023/05/05 19:00:23;;;;;;;;;;;;;;;;;;6112456;23;19925;-83
2023/05/05 19:02:50;;;;;;;;;;;;;;;;;;6137406;23;19931;-81
2023/05/05 19:05:19;;;;;;;;;;;;;;;;;;6135151;23;19924;-82
2023/05/05 19:07:46;;;;;;;;;;;;;;;;;;6133786;23;19939;-81
2023/05/05 19:10:13;;;;;;;;;;;;;;;;;;6144082;23;19928;-81
2023/05/05 19:12:42;;;;;;;;;;;;;;;;;;6132939;23;20361;-81
2023/05/05 19:15:09;;;;;;;;;;;;;;;;;;6163587;23;19921;-80
2023/05/05 19:17:36;;;;;;;;;;;;;;;;;;6113226;23;20402;-81
2023/05/05 19:20:04;;;;;;;;;;;;;;;;;;6162036;23;19920;-80
2023/05/05 19:22:34;;;;;;;;;;;;;;;;;;6133314;23;19936;-80
2023/05/05 19:25:06;;;;;;;;;;;;;;;;;;6133768;23;19930;-80
2023/05/05 19:27:35;;;;;;;;;;;;;;;;;;6171730;23;20086;-80
2023/05/05 19:30:07;;;;;;;;;;;;;;;;;;6163789;23;19921;-81
2023/05/05 19:32:34;;;;;;;;;;;;;;;;;;6146198;23;19925;-81
2023/05/05 19:35:05;;;;;;;;;;;;;;;;;;6160348;23;19927;-81
2023/05/05 19:37:32;;;;;;;;;;;;;;;;;;6163525;23;19931;-82
2023/05/05 19:40:02;;;;;;;;;;;;;;;;;;6137905;23;19920;-82
2023/05/05 19:42:29;;;;;;;;;;;;;;;;;;6113860;23;19927;-82
2023/05/05 19:44:56;;;;;;;;;;;;;;;;;;6138289;23;19924;-82
2023/05/05 19:47:25;;;;;;;;;;;;;;;;;;6137744;23;20409;-82
2023/05/05 19:49:52;;;;;;;;;;;;;;;;;;6162513;23;19924;-82
2023/05/05 19:52:21;;;;;;;;;;;;;;;;;;6137321;23;19920;-81
2023/05/05 19:54:48;;;;;;;;;;;;;;;;;;6138344;23;19921;-81
2023/05/05 19:57:15;;;;;;;;;;;;;;;;;;6136880;23;19927;-82
2023/05/05 19:59:42;;;;;;;;;;;;;;;;;;6137217;23;19921;-82
2023/05/05 20:02:11;;;;;;;;;;;;;;;;;;6163294;23;19921;-82
2023/05/05 20:04:44;;;;;;;;;;;;;;;;;;6160019;23;19920;-82
2023/05/05 20:07:11;;;;;;;;;;;;;;;;;;6160787;23;19935;-82
2023/05/05 20:09:38;;;;;;;;;;;;;;;;;;6137288;23;20349;-82
2023/05/05 20:12:05;;;;;;;;;;;;;;;;;;6163484;23;19921;-82
2023/05/05 20:14:33;;;;;;;;;;;;;;;;;;6162727;23;19921;-81
2023/05/05 20:17:02;;;;;;;;;;;;;;;;;;6137977;23;20249;-82
2023/05/05 20:19:29;;;;;;;;;;;;;;;;;;6137235;23;20342;-82
2023/05/05 20:21:58;;;;;;;;;;;;;;;;;;6160752;23;19924;-82
2023/05/05 20:24:25;;;;;;;;;;;;;;;;;;6163455;23;19927;-82
2023/05/05 20:26:52;;;;;;;;;;;;;;;;;;6162834;23;19927;-82
2023/05/05 20:29:19;;;;;;;;;;;;;;;;;;6164543;23;19942;-82
2023/05/05 20:31:50;;;;;;;;;;;;;;;;;;6157796;23;19948;-81
2023/05/05 20:34:22;;;;;;;;;;;;;;;;;;6182462;23;19964;-81
2023/05/05 20:36:49;;;;;;;;;;;;;;;;;;6165406;23;19964;-82
2023/05/05 20:39:18;;;;;;;;;;;;;;;;;;6136493;23;19924;-82
2023/05/05 20:41:46;;;;;;;;;;;;;;;;;;6136732;23;19921;-82
2023/05/05 20:44:13;;;;;;;;;;;;;;;;;;6137426;23;19920;-82
2023/05/05 20:46:42;;;;;;;;;;;;;;;;;;6163013;23;19920;-82
2023/05/05 20:49:09;;;;;;;;;;;;;;;;;;6161472;23;19927;-82
2023/05/05 20:51:36;;;;;;;;;;;;;;;;;;6138308;23;19927;-82
2023/05/05 20:54:03;;;;;;;;;;;;;;;;;;6162159;23;19940;-82
2023/05/05 20:56:32;;;;;;;;;;;;;;;;;;6137361;23;19921;-82
2023/05/05 20:58:59;;;;;;;;;;;;;;;;;;6135959;23;20462;-82
2023/05/05 21:01:28;;;;;;;;;;;;;;;;;;6137714;23;19927;-82
2023/05/05 21:03:55;;;;;;;;;;;;;;;;;;6135927;23;19931;-82
2023/05/05 21:06:24;;;;;;;;;;;;;;;;;;6163204;23;19921;-81
2023/05/05 21:08:51;;;;;;;;;;;;;;;;;;6134677;23;19920;-82
2023/05/05 21:11:20;;;;;;;;;;;;;;;;;;6163362;23;19932;-81
2023/05/05 21:13:48;;;;;;;;;;;;;;;;;;6135901;23;20356;-80
2023/05/05 21:16:18;;;;;;;;;;;;;;;;;;6137404;23;19944;-80
2023/05/05 21:18:46;;;;;;;;;;;;;;;;;;6162355;23;19921;-80
2023/05/05 21:21:13;;;;;;;;;;;;;;;;;;6136953;23;19920;-79
2023/05/05 21:23:40;;;;;;;;;;;;;;;;;;6136947;23;19920;-79
2023/05/05 21:26:12;;;;;;;;;;;;;;;;;;6138393;23;19920;-80
2023/05/05 21:28:41;;;;;;;;;;;;;;;;;;6161097;23;19920;-80
2023/05/05 21:31:11;;;;;;;;;;;;;;;;;;6114196;23;19931;-80
2023/05/05 21:33:39;;;;;;;;;;;;;;;;;;6137701;23;19978;-80
2023/05/05 21:36:06;;;;;;;;;;;;;;;;;;6163558;23;20249;-80
2023/05/05 21:38:39;;;;;;;;;;;;;;;;;;6161855;23;19920;-80
2023/05/05 21:41:09;;;;;;;;;;;;;;;;;;6162382;23;19927;-80
2023/05/05 21:43:36;;;;;;;;;;;;;;;;;;6136887;23;20235;-80
2023/05/05 21:46:05;;;;;;;;;;;;;;;;;;6138250;23;19932;-80
2023/05/05 21:48:40;;;;;;;;;;;;;;;;;;6167591;23;19921;-79
2023/05/05 21:51:09;;;;;;;;;;;;;;;;;;6148836;23;20281;-79
2023/05/05 21:53:36;;;;;;;;;;;;;;;;;;6162817;23;19920;-80
2023/05/05 21:56:04;;;;;;;;;;;;;;;;;;6162306;23;19927;-80
2023/05/05 21:58:31;;;;;;;;;;;;;;;;;;6112739;23;19920;-80
2023/05/05 22:00:58;;;;;;;;;;;;;;;;;;6161617;23;19920;-80
2023/05/05 22:03:27;;;;;;;;;;;;;;;;;;6137531;23;19921;-81
2023/05/05 22:05:55;;;;;;;;;;;;;;;;;;6137357;23;19941;-81
2023/05/05 22:08:25;;;;;;;;;;;;;;;;;;6143181;23;19927;-82
2023/05/05 22:10:52;;;;;;;;;;;;;;;;;;6163492;23;19921;-82
2023/05/05 22:13:19;;;;;;;;;;;;;;;;;;6163045;23;19921;-81
2023/05/05 22:15:46;;;;;;;;;;;;;;;;;;6113821;23;19921;-81
2023/05/05 22:18:15;;;;;;;;;;;;;;;;;;6137394;23;19930;-82
2023/05/05 22:20:45;;;;;;;;;;;;;;;;;;6137681;23;19927;-81
2023/05/05 22:23:17;;;;;;;;;;;;;;;;;;6137021;23;20360;-81
2023/05/05 22:25:44;;;;;;;;;;;;;;;;;;6172240;23;19921;-81
2023/05/05 22:28:11;;;;;;;;;;;;;;;;;;6135490;23;19921;-81
2023/05/05 22:30:41;;;;;;;;;;;;;;;;;;6161423;23;20299;-81
2023/05/05 22:33:08;;;;;;;;;;;;;;;;;;6135225;23;19920;-81
2023/05/05 22:35:37;;;;;;;;;;;;;;;;;;6137127;23;19920;-81
2023/05/05 22:38:04;;;;;;;;;;;;;;;;;;6135318;23;19921;-81
2023/05/05 22:40:33;;;;;;;;;;;;;;;;;;6162836;23;19921;-81
2023/05/05 22:43:00;;;;;;;;;;;;;;;;;;6136081;23;19924;-81
2023/05/05 22:45:27;;;;;;;;;;;;;;;;;;6136162;23;19924;-80
2023/05/05 22:47:54;;;;;;;;;;;;;;;;;;6160928;23;19921;-80
2023/05/05 22:50:23;;;;;;;;;;;;;;;;;;6162991;23;19925;-80
2023/05/05 22:52:50;;;;;;;;;;;;;;;;;;6160852;23;19921;-80
2023/05/05 22:55:17;;;;;;;;;;;;;;;;;;6136365;23;20427;-80
2023/05/05 22:57:46;;;;;;;;;;;;;;;;;;6136124;23;20337;-80
2023/05/05 23:00:15;;;;;;;;;;;;;;;;;;6136841;23;19920;-80
2023/05/05 23:02:49;;;;;;;;;;;;;;;;;;6171596;23;19921;-79
2023/05/05 23:05:16;;;;;;;;;;;;;;;;;;6139795;23;19921;-80
2023/05/05 23:07:45;;;;;;;;;;;;;;;;;;6162335;23;19920;-80
2023/05/05 23:10:15;;;;;;;;;;;;;;;;;;6162395;23;19921;-80
2023/05/05 23:12:42;;;;;;;;;;;;;;;;;;6160899;23;19921;-80
2023/05/05 23:15:10;;;;;;;;;;;;;;;;;;6162783;23;19924;-80
2023/05/05 23:17:40;;;;;;;;;;;;;;;;;;6136626;23;19924;-80
2023/05/05 23:20:10;;;;;;;;;;;;;;;;;;6163350;23;19925;-80
2023/05/05 23:22:42;;;;;;;;;;;;;;;;;;6160576;23;19920;-80
2023/05/05 23:25:12;;;;;;;;;;;;;;;;;;6161288;23;19921;-79
2023/05/05 23:27:41;;;;;;;;;;;;;;;;;;6162768;23;19920;-80
2023/05/05 23:30:08;;;;;;;;;;;;;;;;;;6136398;23;19927;-80
2023/05/05 23:32:39;;;;;;;;;;;;;;;;;;6137134;23;19925;-80
2023/05/05 23:35:09;;;;;;;;;;;;;;;;;;6136134;23;19925;-80
2023/05/05 23:37:39;;;;;;;;;;;;;;;;;;6136909;23;19921;-80
2023/05/05 23:40:06;;;;;;;;;;;;;;;;;;6135888;23;19931;-79
2023/05/05 23:42:35;;;;;;;;;;;;;;;;;;6136522;23;19920;-80
2023/05/05 23:45:05;;;;;;;;;;;;;;;;;;6160262;23;19920;-81
2023/05/05 23:47:32;;;;;;;;;;;;;;;;;;6136600;23;19920;-82
2023/05/05 23:50:00;;;;;;;;;;;;;;;;;;6136860;23;20238;-81
2023/05/05 23:52:27;;;;;;;;;;;;;;;;;;6135588;23;19921;-81
2023/05/05 23:54:55;;;;;;;;;;;;;;;;;;6136740;23;20341;-81
2023/05/05 23:57:24;;;;;;;;;;;;;;;;;;6161792;23;19931;-81
2023/05/05 23:59:51;;;;;;;;;;;;;;;;;;6136710;23;19929;-81
